EGAA Airport Information

Runway Information
Runway 07 Length 9121 ft width 148 ft
Elevation 206 ft Threshold 0 ft Heading 65
Runway 25 Length 9121 ft Width 148 ft
Elevation 268 ft Threshold 0 ft Heading 245
Runway 17 Length 6401 ft width 148 ft
Elevation 206 ft Threshold 525 ft Heading 162
Runway 35 Length 6401 ft Width 148 ft
Elevation 258 ft Threshold 502 ft Heading 342
Airport Frequencies
Type APP Name APP Frequency 128.5 MHZ
Type ATIS Name ATIS Frequency 128.2 MHZ
Type GND Name GND Frequency 121.75 MHZ
Type ILS 17 Name Frequency 110.9 MHZ
Type ILS 25 Name Frequency 109.9 MHZ
Type OPS Name OPS Frequency 26.48 MHZ
Type RDR Name DIRECTOR Frequency 120.9 MHZ
Type TWR Name TWR Frequency 118.3 MHZ
Airport Navaids
Type VOR-DME Name Belfast Frequency 117200 KHZ
Type NDB Name Aldergrove Frequency 332 KHZ
Airport Weather Information & NOTAM
ADDS - METARS form results

(1513 UTC 14 June 2021)
Data provider http://aviationweather.gov/metar/data/
 
METAR text: EGAA 141450Z 28017KT 9999 BKN034 OVC047 14/07 Q1022
Conditions at: EGAA (BELFAST/ALDERGRO, GB) observed 1450 UTC 14 June 2021
Temperature: 14.0°C (57°F)
Dewpoint: 7.0°C (45°F) [RH = 63%]
Pressure (altimeter): 30.18 inches Hg (1022.0 mb)
Winds: from the W (280 degrees) at 20 MPH (17 knots; 8.7 m/s)
Visibility: 6 or more miles (10+ km)
Ceiling: 3400 feet AGL
Clouds: broken clouds at 3400 feet AGL
overcast cloud deck at 4700 feet AGL
Weather: no significant weather observed at this time

METAR text: EGAA 141420Z 28015KT 9999 BKN046 15/07 Q1022
Conditions at: EGAA (BELFAST/ALDERGRO, GB) observed 1420 UTC 14 June 2021
Temperature: 15.0°C (59°F)
Dewpoint: 7.0°C (45°F) [RH = 59%]
Pressure (altimeter): 30.18 inches Hg (1022.0 mb)
Winds: from the W (280 degrees) at 17 MPH (15 knots; 7.7 m/s)
Visibility: 6 or more miles (10+ km)
Ceiling: 4600 feet AGL
Clouds: broken clouds at 4600 feet AGL
Weather: no significant weather observed at this time

Forecast for: EGAA (BELFAST/ALDERGRO, GB)
Text: TAF EGAA 141056Z 1412/1512 27013KT 9999 FEW025 SCT035
Forecast period: 1200 to 2000 UTC 14 June 2021
Forecast type: FROM: standard forecast or significant change
Winds: from the W (270 degrees) at 15 MPH (13 knots; 6.7 m/s)
Visibility: 6 or more miles (10+ km)
Ceiling: at least 12,000 feet AGL
Clouds: few clouds at 2500 feet AGL
scattered clouds at 3500 feet AGL
Weather: no significant weather forecast for this period
Text: BECMG 1420/1424 20005KT
Forecast period: 2000 UTC 14 June 2021 to 1200 UTC 15 June 2021
Forecast type: BECOMING: Conditions expected to become as follows by 0000 UTC 15 June 2021
Winds: from the SSW (200 degrees) at 6 MPH (5 knots; 2.6 m/s)
Visibility: 6 or more miles (10+ km)
Ceiling: at least 12,000 feet AGL
Clouds: few clouds at 2500 feet AGL
scattered clouds at 3500 feet AGL
Weather: no significant weather forecast for this period